Time;durP1;ratioP1;P1;durP2;ratioP2;P2;SDS_P1;SDS_P2;PMS_P1;PMS_P2;Temp;Humidity;BMP_temperature;BMP_pressure;BME280_temperature;BME280_humidity;BME280_pressure;Samples;Min_cycle;Max_cycle;Signal;HPM_P1;HPM_P2
2023/12/29 00:01:07;;;;;;;2.40;2.20;;;;;;;;;;2615003;54;20499;-75
2023/12/29 00:06:41;;;;;;;5.73;2.60;;;;;;;;;;2615094;54;20405;-75
2023/12/29 00:12:10;;;;;;;6.63;3.13;;;;;;;;;;2615002;39;20884;-75
2023/12/29 00:17:40;;;;;;;4.60;2.73;;;;;;;;;;2613674;54;20414;-76
2023/12/29 00:23:09;;;;;;;4.83;2.20;;;;;;;;;;2614656;39;20748;-76
2023/12/29 00:28:40;;;;;;;15.83;2.97;;;;;;;;;;2613886;54;20418;-76
2023/12/29 00:34:10;;;;;;;5.53;2.73;;;;;;;;;;2614517;54;20395;-75
2023/12/29 00:39:39;;;;;;;7.33;2.30;;;;;;;;;;2613899;39;20766;-76
2023/12/29 00:45:10;;;;;;;2.53;2.30;;;;;;;;;;2614638;54;20367;-75
2023/12/29 00:50:39;;;;;;;5.00;2.90;;;;;;;;;;2613835;54;20391;-75
2023/12/29 00:56:12;;;;;;;3.57;2.50;;;;;;;;;;2614183;54;20405;-75
2023/12/29 01:01:44;;;;;;;3.10;2.80;;;;;;;;;;2614212;39;20731;-77
2023/12/29 01:07:13;;;;;;;4.80;2.20;;;;;;;;;;2614367;54;20389;-77
2023/12/29 01:12:43;;;;;;;5.33;2.50;;;;;;;;;;2613873;54;20346;-75
2023/12/29 01:18:13;;;;;;;2.90;1.80;;;;;;;;;;2615212;39;20971;-77
2023/12/29 01:23:43;;;;;;;4.63;3.00;;;;;;;;;;2613994;54;20390;-75
2023/12/29 01:29:12;;;;;;;7.60;2.80;;;;;;;;;;2613913;54;20395;-77
2023/12/29 01:34:42;;;;;;;4.37;2.83;;;;;;;;;;2614911;39;20938;-78
2023/12/29 01:40:12;;;;;;;2.77;2.30;;;;;;;;;;2614008;54;20395;-79
2023/12/29 01:45:41;;;;;;;6.03;3.23;;;;;;;;;;2614007;54;20402;-78
2023/12/29 01:51:11;;;;;;;4.10;2.53;;;;;;;;;;2614504;54;20379;-78
2023/12/29 01:56:41;;;;;;;1.87;1.77;;;;;;;;;;2614610;54;20910;-79
2023/12/29 02:02:12;;;;;;;10.00;2.23;;;;;;;;;;2614024;54;20378;-78
2023/12/29 02:07:42;;;;;;;8.00;5.30;;;;;;;;;;2614424;54;20355;-78
2023/12/29 02:19:24;;;;;;;7.80;1.93;;;;;;;;;;2613982;54;20406;-73
2023/12/29 02:24:54;;;;;;;3.90;1.90;;;;;;;;;;2614319;54;20349;-74
2023/12/29 02:30:46;;;;;;;5.87;1.70;;;;;;;;;;2613984;54;20390;-74
2023/12/29 02:36:17;;;;;;;14.60;2.60;;;;;;;;;;2614050;54;20510;-74
2023/12/29 02:41:47;;;;;;;6.60;2.47;;;;;;;;;;2615767;54;20498;-78
2023/12/29 02:47:19;;;;;;;17.03;3.03;;;;;;;;;;2615762;54;20429;-77
2023/12/29 02:52:48;;;;;;;3.00;1.63;;;;;;;;;;2615569;54;20414;-77
2023/12/29 02:58:18;;;;;;;4.77;3.03;;;;;;;;;;2615673;54;20402;-78
2023/12/29 03:03:48;;;;;;;5.27;3.10;;;;;;;;;;2615650;54;20358;-76
2023/12/29 03:09:17;;;;;;;2.43;1.70;;;;;;;;;;2615185;54;20358;-79
2023/12/29 03:14:52;;;;;;;9.00;2.57;;;;;;;;;;2615340;54;20484;-77
2023/12/29 03:20:22;;;;;;;7.47;3.37;;;;;;;;;;2615634;54;20465;-77
2023/12/29 03:25:51;;;;;;;6.80;1.97;;;;;;;;;;2615864;54;20374;-78
2023/12/29 03:31:21;;;;;;;6.00;2.30;;;;;;;;;;2615111;54;20954;-78
2023/12/29 03:36:53;;;;;;;9.80;2.57;;;;;;;;;;2615965;54;20371;-76
2023/12/29 03:42:22;;;;;;;13.43;3.37;;;;;;;;;;2615371;54;20416;-79
2023/12/29 03:47:52;;;;;;;3.47;1.77;;;;;;;;;;2615180;54;20924;-79
2023/12/29 03:53:26;;;;;;;6.73;1.80;;;;;;;;;;2614643;54;20354;-79
2023/12/29 03:58:56;;;;;;;8.97;2.53;;;;;;;;;;2614932;54;20406;-79
2023/12/29 04:04:27;;;;;;;9.67;1.60;;;;;;;;;;2615006;39;20785;-79
2023/12/29 04:09:57;;;;;;;4.53;1.83;;;;;;;;;;2614520;54;20383;-79
2023/12/29 04:12:41;;;;;;;4.00;1.70;;;;;;;;;;2614543;54;21260;-75
2023/12/29 04:15:08;;;;;;;7.63;1.77;;;;;;;;;;2613631;39;20857;-75
2023/12/29 04:20:37;;;;;;;11.17;2.07;;;;;;;;;;2614253;54;20418;-76
2023/12/29 04:26:07;;;;;;;5.07;1.90;;;;;;;;;;2614641;54;20411;-75
2023/12/29 04:31:37;;;;;;;3.67;2.30;;;;;;;;;;2614749;54;20394;-76
2023/12/29 04:37:06;;;;;;;5.43;2.40;;;;;;;;;;2615101;54;20383;-76
2023/12/29 04:42:36;;;;;;;3.40;1.50;;;;;;;;;;2614063;54;20383;-73
2023/12/29 04:48:06;;;;;;;3.90;1.80;;;;;;;;;;2614793;54;20399;-73
2023/12/29 04:53:36;;;;;;;8.13;2.30;;;;;;;;;;2614542;46;20424;-73
2023/12/29 04:59:05;;;;;;;2.20;1.40;;;;;;;;;;2614967;31;20857;-73
2023/12/29 05:04:35;;;;;;;6.50;1.60;;;;;;;;;;2614204;54;20355;-73
2023/12/29 05:10:05;;;;;;;17.13;3.70;;;;;;;;;;2614601;54;20355;-74
2023/12/29 05:12:44;;;;;;;11.23;2.20;;;;;;;;;;2613368;47;20466;-74
2023/12/29 05:15:10;;;;;;;10.50;1.73;;;;;;;;;;2614067;39;20822;-74
2023/12/29 05:20:40;;;;;;;5.20;2.23;;;;;;;;;;2613847;54;20383;-73
2023/12/29 05:26:10;;;;;;;8.43;2.33;;;;;;;;;;2614464;39;20742;-74
2023/12/29 05:31:40;;;;;;;7.90;2.60;;;;;;;;;;2613752;54;20390;-74
2023/12/29 05:37:09;;;;;;;5.30;1.27;;;;;;;;;;2614239;54;20393;-78
2023/12/29 05:42:42;;;;;;;7.53;3.00;;;;;;;;;;2614072;54;20358;-80
2023/12/29 05:48:11;;;;;;;2.90;1.73;;;;;;;;;;2614452;54;20363;-80
2023/12/29 05:53:41;;;;;;;2.30;1.77;;;;;;;;;;2614497;54;20391;-80
2023/12/29 05:59:13;;;;;;;3.77;1.90;;;;;;;;;;2614033;54;20398;-77
2023/12/29 06:04:43;;;;;;;4.77;1.30;;;;;;;;;;2614049;54;20462;-79
2023/12/29 06:10:13;;;;;;;12.03;2.27;;;;;;;;;;2613791;54;20386;-80
2023/12/29 06:12:42;;;;;;;3.83;2.30;;;;;;;;;;2613268;47;21089;-79
2023/12/29 06:15:08;;;;;;;4.23;1.80;;;;;;;;;;2614111;39;20819;-81
2023/12/29 06:20:38;;;;;;;6.70;2.40;;;;;;;;;;2613928;54;20359;-77
2023/12/29 06:26:14;;;;;;;12.60;2.27;;;;;;;;;;2613577;54;20355;-80
2023/12/29 06:31:44;;;;;;;7.63;2.87;;;;;;;;;;2612800;54;20351;-80
2023/12/29 06:37:13;;;;;;;6.60;2.60;;;;;;;;;;2613253;54;21082;-80
2023/12/29 06:42:43;;;;;;;8.17;2.47;;;;;;;;;;2612694;54;20495;-75
2023/12/29 06:48:12;;;;;;;7.03;1.97;;;;;;;;;;2612927;39;20650;-75
2023/12/29 06:53:41;;;;;;;9.43;2.07;;;;;;;;;;2612463;54;20422;-75
2023/12/29 06:59:10;;;;;;;8.67;2.37;;;;;;;;;;2613038;54;20374;-74
2023/12/29 07:04:42;;;;;;;8.13;2.00;;;;;;;;;;2614388;54;20374;-75
2023/12/29 07:10:14;;;;;;;5.50;2.23;;;;;;;;;;2614010;54;20957;-77
2023/12/29 07:15:44;;;;;;;10.10;2.20;;;;;;;;;;2615106;54;21103;-77
2023/12/29 07:21:16;;;;;;;5.87;2.17;;;;;;;;;;2612291;54;20382;-75
2023/12/29 07:26:45;;;;;;;7.20;2.10;;;;;;;;;;2614196;54;20358;-74
2023/12/29 07:32:15;;;;;;;8.70;2.40;;;;;;;;;;2614120;54;20385;-72
2023/12/29 07:35:00;;;;;;;4.40;1.80;;;;;;;;;;2614752;39;20805;-73
2023/12/29 07:37:26;;;;;;;8.40;2.00;;;;;;;;;;2613180;54;20502;-73
2023/12/29 07:42:58;;;;;;;3.97;1.47;;;;;;;;;;2613366;54;20414;-72
2023/12/29 07:48:28;;;;;;;11.87;2.27;;;;;;;;;;2613901;54;20386;-73
2023/12/29 07:53:57;;;;;;;4.37;2.00;;;;;;;;;;2613728;39;20841;-73
2023/12/29 07:56:45;;;;;;;7.87;1.70;;;;;;;;;;2613001;54;20402;-71
2023/12/29 07:59:11;;;;;;;6.13;1.77;;;;;;;;;;2611320;54;20403;-72
2023/12/29 08:04:41;;;;;;;5.23;1.90;;;;;;;;;;2613873;54;20524;-76
2023/12/29 08:10:10;;;;;;;8.20;1.97;;;;;;;;;;2611172;54;20525;-76
2023/12/29 08:19:21;;;;;;;6.27;1.63;;;;;;;;;;2613779;54;20401;-75
2023/12/29 08:24:50;;;;;;;5.27;1.80;;;;;;;;;;2613847;39;20706;-76
2023/12/29 08:30:21;;;;;;;3.80;1.73;;;;;;;;;;2612941;54;20487;-77
2023/12/29 08:35:51;;;;;;;11.20;2.20;;;;;;;;;;2612551;54;20393;-77
2023/12/29 08:41:20;;;;;;;5.03;1.93;;;;;;;;;;2613158;54;20350;-75
2023/12/29 08:46:50;;;;;;;4.83;1.80;;;;;;;;;;2614095;54;20362;-76
2023/12/29 08:52:21;;;;;;;3.63;1.70;;;;;;;;;;2613287;54;20398;-72
2023/12/29 08:57:51;;;;;;;6.37;2.00;;;;;;;;;;2612965;54;20393;-71
2023/12/29 09:03:20;;;;;;;3.50;1.60;;;;;;;;;;2613682;54;20381;-75
2023/12/29 09:08:50;;;;;;;2.77;1.00;;;;;;;;;;2613474;54;20438;-80
2023/12/29 09:14:20;;;;;;;9.30;3.03;;;;;;;;;;2612408;54;20509;-73
2023/12/29 09:19:49;;;;;;;3.63;1.00;;;;;;;;;;2613712;54;20446;-72
2023/12/29 09:25:19;;;;;;;1.70;1.00;;;;;;;;;;2613730;54;20410;-73
2023/12/29 09:30:49;;;;;;;3.00;2.10;;;;;;;;;;2612919;54;20367;-72
2023/12/29 09:36:19;;;;;;;1.50;0.73;;;;;;;;;;2612714;54;20429;-73
2023/12/29 09:41:51;;;;;;;1.57;0.87;;;;;;;;;;2614181;39;20828;-73
2023/12/29 09:47:23;;;;;;;1.53;0.67;;;;;;;;;;2614019;54;20792;-73
2023/12/29 09:52:53;;;;;;;1.93;1.10;;;;;;;;;;2614793;54;20503;-72
2023/12/29 09:58:25;;;;;;;2.00;0.83;;;;;;;;;;2613112;54;20357;-73
2023/12/29 10:03:54;;;;;;;1.90;1.40;;;;;;;;;;2613904;54;20365;-73
2023/12/29 10:09:24;;;;;;;1.80;0.80;;;;;;;;;;2613616;54;20366;-73
2023/12/29 10:15:02;;;;;;;3.33;0.87;;;;;;;;;;2613825;54;20386;-73
2023/12/29 10:24:10;;;;;;;1.20;0.83;;;;;;;;;;2613634;46;20446;-73
2023/12/29 10:29:39;;;;;;;2.50;0.97;;;;;;;;;;2613435;54;20421;-75
2023/12/29 10:35:10;;;;;;;1.10;0.80;;;;;;;;;;2613140;54;20917;-76
2023/12/29 10:40:41;;;;;;;2.10;0.70;;;;;;;;;;2610372;54;20426;-74
2023/12/29 10:46:12;;;;;;;2.07;1.10;;;;;;;;;;2612798;54;20386;-74
2023/12/29 10:51:41;;;;;;;3.00;1.37;;;;;;;;;;2613003;54;20353;-75
2023/12/29 10:57:12;;;;;;;2.53;1.30;;;;;;;;;;2613114;54;20385;-75
2023/12/29 11:02:42;;;;;;;1.77;0.70;;;;;;;;;;2614022;54;20502;-74
2023/12/29 11:08:21;;;;;;;2.43;1.10;;;;;;;;;;2614375;54;20406;-75
2023/12/29 11:13:51;;;;;;;2.30;1.43;;;;;;;;;;2612905;54;20370;-76
2023/12/29 11:19:21;;;;;;;2.63;1.27;;;;;;;;;;2614605;54;20916;-75
2023/12/29 11:24:51;;;;;;;5.70;0.90;;;;;;;;;;2614372;54;22955;-76
2023/12/29 11:30:21;;;;;;;1.97;0.90;;;;;;;;;;2613146;54;20503;-76
2023/12/29 11:36:03;;;;;;;2.90;1.30;;;;;;;;;;2615106;54;20367;-78
2023/12/29 11:41:37;;;;;;;4.20;1.57;;;;;;;;;;2614531;54;20874;-77
2023/12/29 11:59:21;;;;;;;5.13;1.70;;;;;;;;;;2614211;54;20949;-78
2023/12/29 12:04:50;;;;;;;5.70;1.33;;;;;;;;;;2613638;54;20479;-77
2023/12/29 12:10:20;;;;;;;1.20;0.80;;;;;;;;;;2613021;54;20479;-77
2023/12/29 12:15:50;;;;;;;2.17;0.90;;;;;;;;;;2614203;54;20372;-79
2023/12/29 12:27:27;;;;;;;3.33;1.33;;;;;;;;;;2614813;54;20359;-76
2023/12/29 12:33:04;;;;;;;3.17;1.20;;;;;;;;;;2614224;54;20395;-77
2023/12/29 12:38:34;;;;;;;2.47;1.57;;;;;;;;;;2614172;54;20463;-78
2023/12/29 12:44:14;;;;;;;1.73;1.03;;;;;;;;;;2615342;54;20502;-74
2023/12/29 12:49:44;;;;;;;2.33;1.57;;;;;;;;;;2614279;54;20373;-73
2023/12/29 12:55:14;;;;;;;1.37;1.13;;;;;;;;;;2613544;54;20385;-73
2023/12/29 13:00:44;;;;;;;2.07;1.27;;;;;;;;;;2613866;54;20425;-73
2023/12/29 13:06:16;;;;;;;1.20;1.00;;;;;;;;;;2614196;54;20478;-72
2023/12/29 13:11:46;;;;;;;1.80;1.00;;;;;;;;;;2613668;54;20386;-74
2023/12/29 13:17:22;;;;;;;3.20;1.50;;;;;;;;;;2614465;54;20361;-73
2023/12/29 13:22:55;;;;;;;2.93;1.60;;;;;;;;;;2612496;54;20461;-74
2023/12/29 13:28:26;;;;;;;2.90;1.70;;;;;;;;;;2614404;54;20361;-72
2023/12/29 13:34:01;;;;;;;3.00;1.70;;;;;;;;;;2613543;46;20481;-73
2023/12/29 13:39:37;;;;;;;2.67;1.43;;;;;;;;;;2614038;54;20392;-74
2023/12/29 13:45:08;;;;;;;3.37;2.20;;;;;;;;;;2614062;54;20476;-73
2023/12/29 13:50:37;;;;;;;3.50;2.20;;;;;;;;;;2612942;54;20414;-74
2023/12/29 13:56:10;;;;;;;2.07;1.40;;;;;;;;;;2613159;54;20386;-74
2023/12/29 14:01:40;;;;;;;3.03;1.90;;;;;;;;;;2613247;54;20447;-74
2023/12/29 14:07:10;;;;;;;2.87;1.50;;;;;;;;;;2613617;54;20398;-72
2023/12/29 14:12:40;;;;;;;3.07;1.57;;;;;;;;;;2613295;54;20383;-73
2023/12/29 14:18:12;;;;;;;12.57;2.10;;;;;;;;;;2613506;54;20410;-71
2023/12/29 14:23:42;;;;;;;2.30;1.90;;;;;;;;;;2613089;54;21008;-74
2023/12/29 14:29:12;;;;;;;4.10;2.10;;;;;;;;;;2612850;54;20511;-73
2023/12/29 14:34:46;;;;;;;4.83;2.10;;;;;;;;;;2613205;54;20390;-75
2023/12/29 14:40:15;;;;;;;2.27;1.10;;;;;;;;;;2614077;54;20363;-71
2023/12/29 14:45:45;;;;;;;3.93;1.60;;;;;;;;;;2613903;54;20387;-73
2023/12/29 14:51:15;;;;;;;5.77;1.77;;;;;;;;;;2613451;54;20521;-71
2023/12/29 14:56:44;;;;;;;3.10;1.10;;;;;;;;;;2614257;54;20458;-73
2023/12/29 15:02:15;;;;;;;1.70;1.47;;;;;;;;;;2613966;54;20398;-74
2023/12/29 15:07:45;;;;;;;1.50;1.10;;;;;;;;;;2613877;54;20424;-79
2023/12/29 15:13:15;;;;;;;1.47;1.23;;;;;;;;;;2614185;54;20390;-74
2023/12/29 15:18:47;;;;;;;2.23;1.40;;;;;;;;;;2613157;54;20478;-73
2023/12/29 15:27:57;;;;;;;2.03;0.90;;;;;;;;;;2613387;54;20478;-72
2023/12/29 15:33:26;;;;;;;3.13;0.97;;;;;;;;;;2614384;39;20943;-72
2023/12/29 15:38:58;;;;;;;3.20;1.53;;;;;;;;;;2614516;54;21266;-74
2023/12/29 15:44:27;;;;;;;4.63;1.80;;;;;;;;;;2614180;39;20790;-76
2023/12/29 15:49:57;;;;;;;4.70;1.50;;;;;;;;;;2614334;54;20394;-76
2023/12/29 15:55:27;;;;;;;3.20;1.50;;;;;;;;;;2614763;54;20369;-77
2023/12/29 16:00:56;;;;;;;2.03;1.40;;;;;;;;;;2614213;54;20394;-76
2023/12/29 16:06:27;;;;;;;3.00;1.90;;;;;;;;;;2614721;54;20499;-76
2023/12/29 16:11:56;;;;;;;4.10;1.87;;;;;;;;;;2615293;54;20367;-76
2023/12/29 16:17:26;;;;;;;2.33;1.80;;;;;;;;;;2614467;54;20419;-75
2023/12/29 16:22:55;;;;;;;2.57;1.97;;;;;;;;;;2614466;54;20937;-76
2023/12/29 16:28:26;;;;;;;1.77;1.23;;;;;;;;;;2614455;54;20362;-75
2023/12/29 16:33:56;;;;;;;3.23;1.80;;;;;;;;;;2614342;54;20394;-77
2023/12/29 16:39:25;;;;;;;2.67;1.27;;;;;;;;;;2614334;54;20426;-80
2023/12/29 16:44:56;;;;;;;2.13;1.10;;;;;;;;;;2614853;54;20409;-78
2023/12/29 16:50:26;;;;;;;3.00;1.27;;;;;;;;;;2613987;54;20404;-77
2023/12/29 16:55:57;;;;;;;3.20;1.93;;;;;;;;;;2614643;54;20406;-78
2023/12/29 17:01:26;;;;;;;4.00;2.60;;;;;;;;;;2614465;54;20423;-77
2023/12/29 17:06:58;;;;;;;4.77;1.37;;;;;;;;;;2614397;54;20385;-76
2023/12/29 17:12:28;;;;;;;4.20;2.70;;;;;;;;;;2614305;54;20403;-73
2023/12/29 17:18:00;;;;;;;2.40;1.80;;;;;;;;;;2614998;54;20501;-74
2023/12/29 17:23:32;;;;;;;1.57;1.00;;;;;;;;;;2614195;54;20374;-75
2023/12/29 17:29:02;;;;;;;3.20;1.80;;;;;;;;;;2614921;54;20403;-75
2023/12/29 17:34:38;;;;;;;3.03;1.97;;;;;;;;;;2614719;54;20410;-75
2023/12/29 17:40:10;;;;;;;6.03;2.77;;;;;;;;;;2614515;54;20401;-73
2023/12/29 17:45:39;;;;;;;3.43;2.60;;;;;;;;;;2614495;54;20415;-76
2023/12/29 17:51:10;;;;;;;6.03;3.10;;;;;;;;;;2614329;54;20442;-76
2023/12/29 17:56:41;;;;;;;9.80;3.87;;;;;;;;;;2614138;54;20401;-74
2023/12/29 18:02:14;;;;;;;10.13;4.40;;;;;;;;;;2613978;54;20379;-75
2023/12/29 18:07:44;;;;;;;6.30;2.00;;;;;;;;;;2614185;54;20430;-78
2023/12/29 18:13:20;;;;;;;4.60;1.67;;;;;;;;;;2614610;54;20370;-78
2023/12/29 18:18:49;;;;;;;3.20;2.13;;;;;;;;;;2613892;54;20383;-77
2023/12/29 18:28:01;;;;;;;3.80;2.30;;;;;;;;;;2614352;54;20403;-76
2023/12/29 18:33:33;;;;;;;3.67;2.10;;;;;;;;;;2614572;54;20415;-78
2023/12/29 18:39:04;;;;;;;8.47;3.20;;;;;;;;;;2614279;54;20387;-78
2023/12/29 18:44:40;;;;;;;7.30;2.30;;;;;;;;;;2614185;54;20352;-78
2023/12/29 18:50:09;;;;;;;2.90;1.73;;;;;;;;;;2612514;54;20974;-79
2023/12/29 18:55:44;;;;;;;5.73;1.40;;;;;;;;;;2614098;39;20474;-80
2023/12/29 19:01:14;;;;;;;5.10;2.57;;;;;;;;;;2613388;54;20419;-81
2023/12/29 19:06:44;;;;;;;5.80;1.90;;;;;;;;;;2614204;46;20410;-80
2023/12/29 19:12:14;;;;;;;4.33;2.57;;;;;;;;;;2613230;54;20370;-80
2023/12/29 19:17:44;;;;;;;4.63;1.77;;;;;;;;;;2614085;54;20354;-82
2023/12/29 19:23:14;;;;;;;6.47;1.83;;;;;;;;;;2613881;54;20425;-83
2023/12/29 19:28:44;;;;;;;2.33;1.30;;;;;;;;;;2614445;54;20956;-81
2023/12/29 19:34:14;;;;;;;7.20;1.83;;;;;;;;;;2613714;54;20397;-80
2023/12/29 19:40:02;;;;;;;3.60;1.90;;;10.00;1.00;;;;;;2614012;54;20414;-80
2023/12/29 19:45:50;;;;;;;3.50;2.70;;;10.10;1.00;;;;;;2613879;54;20387;-78
2023/12/29 19:51:38;;;;;;;3.50;1.37;;;10.30;1.00;;;;;;2614244;54;20132;-79
2023/12/29 19:57:25;;;;;;;7.60;2.47;;;9.90;46.70;;;;;;2615189;54;20134;-77
2023/12/29 20:03:13;;;;;;;6.03;1.90;;;9.10;99.90;;;;;;2614619;54;20178;-76
2023/12/29 20:09:03;;;;;;;3.63;1.47;;;8.20;99.90;;;;;;2614813;54;20129;-77
2023/12/29 20:14:51;;;;;;;1.80;1.13;;;7.80;99.90;;;;;;2614859;54;20461;-76
2023/12/29 20:17:55;;;;;;;5.50;1.93;;;7.90;99.90;;;;;;2613454;39;20802;-76
2023/12/29 20:20:21;;;;;;;1.83;1.10;;;7.80;99.90;;;;;;2612434;54;20149;-77
2023/12/29 20:23:28;;;;;;;5.33;1.40;;;7.90;99.90;;;;;;2613027;54;20404;-76
2023/12/29 20:29:32;;;;;;;3.63;1.97;;;7.70;99.90;;;;;;2613670;54;20389;-77
2023/12/29 20:35:19;;;;;;;6.00;2.10;;;7.90;1.00;;;;;;2614073;54;20377;-76
2023/12/29 20:38:22;;;;;;;6.17;1.70;;;8.10;99.90;;;;;;2614459;54;20361;-82
2023/12/29 20:40:49;;;;;;;9.13;2.20;;;8.10;99.90;;;;;;2613244;54;20160;-77
2023/12/29 20:46:37;;;;;;;7.13;2.77;;;8.00;99.90;;;;;;2613580;54;20380;-77
2023/12/29 20:52:24;;;;;;;4.83;2.50;;;8.10;99.90;;;;;;2614039;54;20165;-79
2023/12/29 20:58:12;;;;;;;6.67;3.00;;;8.10;1.00;;;;;;2613718;54;20400;-79
2023/12/29 21:04:00;;;;;;;6.13;4.43;;;8.40;99.90;;;;;;2613402;54;20173;-79
2023/12/29 21:09:49;;;;;;;3.60;2.20;;;8.30;1.00;;;;;;2614642;39;20813;-79
2023/12/29 21:15:37;;;;;;;6.57;3.20;;;8.60;99.90;;;;;;2613609;46;20512;-78
2023/12/29 21:21:24;;;;;;;5.20;3.43;;;8.60;1.00;;;;;;2614118;54;20394;-77
2023/12/29 21:27:12;;;;;;;10.33;2.93;;;9.20;99.90;;;;;;2613395;54;20751;-78
2023/12/29 21:33:00;;;;;;;7.53;3.83;;;9.50;99.90;;;;;;2614109;54;20141;-78
2023/12/29 21:38:48;;;;;;;6.00;3.90;;;9.50;99.90;;;;;;2614230;54;20141;-78
2023/12/29 21:44:36;;;;;;;13.07;2.77;;;9.30;99.90;;;;;;2614251;54;20126;-78
2023/12/29 21:50:24;;;;;;;8.50;1.93;;;9.50;99.90;;;;;;2613004;54;20375;-78
2023/12/29 21:56:12;;;;;;;10.00;2.80;;;9.60;99.90;;;;;;2612506;54;20271;-78
2023/12/29 22:01:59;;;;;;;10.50;2.20;;;9.60;99.90;;;;;;2614050;54;20132;-79
2023/12/29 22:07:47;;;;;;;8.77;3.40;;;9.60;99.90;;;;;;2613577;54;20676;-79
2023/12/29 22:13:34;;;;;;;6.03;2.37;;;9.70;99.90;;;;;;2613946;54;20173;-79
2023/12/29 22:19:24;;;;;;;7.07;3.63;;;9.70;99.90;;;;;;2613909;54;20157;-77
2023/12/29 22:31:56;;;;;;;6.73;2.00;;;9.70;99.90;;;;;;2613590;54;21012;-74
2023/12/29 22:37:47;;;;;;;7.87;2.70;;;9.80;90.60;;;;;;2613723;54;20180;-74
2023/12/29 22:43:35;;;;;;;15.97;3.30;;;9.70;3.90;;;;;;2613669;54;20374;-74
2023/12/29 22:49:23;;;;;;;6.60;1.60;;;9.80;1.00;;;;;;2613519;54;20956;-75
2023/12/29 22:55:11;;;;;;;15.57;2.10;;;9.90;1.00;;;;;;2614361;39;20535;-75
2023/12/29 23:00:41;;;;;;;6.93;2.57;;;9.80;1.00;;;;;;2614129;54;20125;-73
2023/12/29 23:06:29;;;;;;;5.50;2.57;;;9.70;1.00;;;;;;2614588;54;20419;-73
2023/12/29 23:12:16;;;;;;;6.27;3.30;;;9.60;1.00;;;;;;2614820;54;20130;-74
2023/12/29 23:18:05;;;;;;;9.67;3.80;;;;;;;;;;2614576;54;20131;-74
2023/12/29 23:23:53;;;;;;;9.30;2.57;;;9.60;1.00;;;;;;2614327;54;20394;-74
2023/12/29 23:29:41;;;;;;;9.23;3.33;;;9.60;1.00;;;;;;2614266;39;20600;-75
2023/12/29 23:35:28;;;;;;;9.30;2.20;;;9.60;1.00;;;;;;2614228;46;20675;-79
2023/12/29 23:41:17;;;;;;;7.00;1.83;;;9.60;1.00;;;;;;2614204;54;20185;-80
2023/12/29 23:47:06;;;;;;;10.00;3.17;;;9.50;1.00;;;;;;2614368;54;20405;-78
2023/12/29 23:52:54;;;;;;;6.33;2.17;;;9.50;1.00;;;;;;2614208;54;20440;-80
2023/12/29 23:58:42;;;;;;;4.30;2.57;;;9.50;1.00;;;;;;2614346;54;20458;-80
